createdAt,value
2024-04-18T00:01:19.255Z,6.10
2024-04-18T00:06:23.566Z,5.97
2024-04-18T00:11:27.237Z,5.93
2024-04-18T00:16:31.988Z,4.88
2024-04-18T00:21:52.209Z,5.10
2024-04-18T00:27:02.300Z,5.50
2024-04-18T00:32:13.274Z,5.18
2024-04-18T00:37:38.500Z,5.00
2024-04-18T00:42:42.848Z,4.82
2024-04-18T00:47:50.347Z,4.90
2024-04-18T00:52:53.764Z,4.53
2024-04-18T00:58:05.176Z,5.60
2024-04-18T01:03:17.448Z,4.93
2024-04-18T01:08:21.107Z,4.18
2024-04-18T01:13:40.826Z,3.25
2024-04-18T01:19:01.359Z,4.13
2024-04-18T01:24:05.296Z,3.97
2024-04-18T01:29:08.529Z,3.78
2024-04-18T01:34:13.080Z,4.07
2024-04-18T01:39:16.951Z,4.00
2024-04-18T01:44:21.146Z,4.18
2024-04-18T01:49:45.391Z,4.40
2024-04-18T01:54:48.498Z,3.40
2024-04-18T02:00:07.859Z,3.78
2024-04-18T02:05:14.659Z,3.60
2024-04-18T02:10:20.659Z,3.60
2024-04-18T02:20:49.800Z,2.80
2024-04-18T02:26:00.111Z,2.63
2024-04-18T02:31:05.056Z,2.55
2024-04-18T02:36:26.752Z,2.17
2024-04-18T02:41:51.145Z,2.42
2024-04-18T02:47:03.101Z,1.95
2024-04-18T02:52:07.058Z,2.40
2024-04-18T02:57:20.418Z,2.97
2024-04-18T03:02:29.113Z,2.20
2024-04-18T03:07:51.734Z,2.17
2024-04-18T03:12:55.901Z,2.08
2024-04-18T03:18:19.262Z,1.65
2024-04-18T03:23:32.207Z,2.08
2024-04-18T03:28:38.937Z,1.90
2024-04-18T03:33:44.869Z,2.20
2024-04-18T03:38:48.320Z,2.20
2024-04-18T03:43:51.916Z,1.80
2024-04-18T03:48:57.928Z,2.28
2024-04-18T03:54:02.139Z,1.77
2024-04-18T03:59:25.579Z,2.08
2024-04-18T04:04:31.222Z,2.10
2024-04-18T04:09:34.367Z,2.22
2024-04-18T04:14:37.396Z,1.75
2024-04-18T04:19:42.085Z,1.50
2024-04-18T04:24:45.989Z,1.88
2024-04-18T04:29:59.963Z,1.80
2024-04-18T04:35:03.488Z,1.70
2024-04-18T04:40:07.779Z,2.45
2024-04-18T04:45:12.643Z,1.65
2024-04-18T04:50:15.767Z,1.65
2024-04-18T04:55:18.730Z,1.88
2024-04-18T05:00:23.787Z,1.73
2024-04-18T05:05:33.031Z,1.50
2024-04-18T05:10:46.345Z,1.65
2024-04-18T05:15:54.395Z,1.20
2024-04-18T05:21:07.359Z,1.30
2024-04-18T05:26:34.132Z,1.30
2024-04-18T05:31:41.604Z,1.70
2024-04-18T05:36:47.385Z,1.40
2024-04-18T05:47:09.214Z,1.50
2024-04-18T05:52:12.614Z,1.48
2024-04-18T05:57:18.078Z,1.00
2024-04-18T06:02:28.954Z,1.20
2024-04-18T06:07:32.782Z,1.30
2024-04-18T06:12:36.704Z,1.40
2024-04-18T06:17:42.034Z,1.38
2024-04-18T06:22:45.670Z,1.40
2024-04-18T06:28:01.592Z,1.00
2024-04-18T06:33:07.316Z,1.58
2024-04-18T06:38:10.488Z,1.17
2024-04-18T06:43:14.902Z,0.98
2024-04-18T06:48:18.210Z,1.10
2024-04-18T06:53:21.304Z,1.10
2024-04-18T06:58:25.026Z,0.85
2024-04-18T07:03:30.660Z,0.90
2024-04-18T07:08:33.899Z,0.95
2024-04-18T07:13:41.490Z,1.67
2024-04-18T07:19:04.899Z,1.48
2024-04-18T07:24:28.033Z,1.10
2024-04-18T07:29:31.663Z,0.90
2024-04-18T07:34:36.646Z,1.30
2024-04-18T07:39:45.878Z,1.60
2024-04-18T07:44:48.923Z,1.65
2024-04-18T07:49:52.954Z,1.30
2024-04-18T07:54:56.745Z,1.40
2024-04-18T08:00:00.720Z,1.00
2024-04-18T08:05:17.763Z,1.55
2024-04-18T08:10:24.830Z,1.25
2024-04-18T08:20:58.103Z,1.15
2024-04-18T08:26:01.271Z,1.10
2024-04-18T08:31:06.123Z,1.52
2024-04-18T08:36:09.325Z,1.20
2024-04-18T08:41:14.760Z,1.40
2024-04-18T08:46:19.993Z,1.10
2024-04-18T08:51:23.511Z,1.80
2024-04-18T08:56:27.072Z,0.65
2024-04-18T09:01:31.591Z,0.75
2024-04-18T09:06:35.080Z,0.65
2024-04-18T09:11:39.342Z,0.80
2024-04-18T09:16:45.119Z,1.00
2024-04-18T09:21:48.696Z,2.17
2024-04-18T09:26:52.230Z,1.08
2024-04-18T09:31:59.961Z,1.40
2024-04-18T09:37:07.300Z,0.88
2024-04-18T09:42:29.190Z,1.10
2024-04-18T09:47:34.217Z,1.40
2024-04-18T09:52:39.169Z,0.93
2024-04-18T09:57:44.652Z,1.75
2024-04-18T10:02:52.222Z,0.82
2024-04-18T10:07:59.786Z,1.27
2024-04-18T10:13:06.075Z,0.77
2024-04-18T10:18:22.193Z,1.17
2024-04-18T10:23:29.175Z,1.40
2024-04-18T10:28:36.067Z,3.72
2024-04-18T10:33:44.348Z,0.75
2024-04-18T10:38:49.238Z,1.15
2024-04-18T10:43:52.876Z,1.07
2024-04-18T10:48:59.218Z,1.20
2024-04-18T10:54:02.554Z,0.95
2024-04-18T10:59:09.285Z,1.20
2024-04-18T11:04:13.618Z,2.10
2024-04-18T11:09:18.591Z,1.50
2024-04-18T11:14:23.752Z,1.47
2024-04-18T11:19:28.119Z,0.90
2024-04-18T11:24:31.597Z,0.88
2024-04-18T11:29:35.191Z,1.65
2024-04-18T11:34:40.415Z,1.90
2024-04-18T11:39:43.973Z,4.00
2024-04-18T11:44:47.467Z,3.30
2024-04-18T11:49:52.146Z,8.10
2024-04-18T11:54:55.892Z,2.28
2024-04-18T12:00:13.458Z,2.10
2024-04-18T12:05:35.697Z,2.40
2024-04-18T12:10:40.020Z,2.22
2024-04-18T12:15:43.541Z,2.97
2024-04-18T12:21:06.060Z,2.35
2024-04-18T12:26:13.242Z,1.95
2024-04-18T12:31:22.747Z,1.30
2024-04-18T12:36:28.262Z,1.05
2024-04-18T12:41:52.178Z,1.40
2024-04-18T12:46:55.508Z,1.50
2024-04-18T12:51:59.422Z,1.38
2024-04-18T12:57:03.017Z,1.60
2024-04-18T13:02:07.737Z,1.67
2024-04-18T13:07:15.433Z,3.47
2024-04-18T13:12:39.935Z,3.40
2024-04-18T13:18:03.014Z,2.63
2024-04-18T13:23:06.792Z,2.75
2024-04-18T13:28:11.603Z,3.40
2024-04-18T13:33:16.175Z,4.45
2024-04-18T13:38:19.633Z,3.60
2024-04-18T13:43:31.894Z,2.95
2024-04-18T13:48:44.871Z,2.35
2024-04-18T13:53:47.760Z,2.40
2024-04-18T13:58:57.834Z,2.40
2024-04-18T14:04:04.793Z,2.45
2024-04-18T14:09:16.616Z,1.65
2024-04-18T14:14:19.482Z,1.88
2024-04-18T14:19:41.436Z,1.67
2024-04-18T14:24:44.756Z,1.80
2024-04-18T14:30:08.500Z,1.52
2024-04-18T14:35:12.243Z,1.30
2024-04-18T14:40:15.596Z,1.30
2024-04-18T14:45:20.366Z,1.37
2024-04-18T14:50:23.346Z,2.00
2024-04-18T14:55:40.276Z,1.83
2024-04-18T15:00:54.845Z,1.92
2024-04-18T15:06:00.769Z,3.10
2024-04-18T15:11:15.569Z,2.58
2024-04-18T15:16:37.441Z,2.38
2024-04-18T15:21:40.968Z,1.90
2024-04-18T15:26:47.946Z,1.92
2024-04-18T15:31:52.122Z,1.83
2024-04-18T15:37:13.770Z,1.30
2024-04-18T15:42:34.001Z,1.50
2024-04-18T15:47:39.131Z,1.63
2024-04-18T15:52:57.154Z,1.70
2024-04-18T15:58:05.144Z,2.05
2024-04-18T16:03:19.047Z,1.80
2024-04-18T16:08:29.122Z,1.50
2024-04-18T16:13:32.043Z,1.50
2024-04-18T16:18:54.012Z,2.15
2024-04-18T16:24:09.973Z,2.00
2024-04-18T16:29:13.310Z,1.98
2024-04-18T16:34:18.644Z,1.50
2024-04-18T16:39:32.976Z,2.10
2024-04-18T16:44:37.112Z,1.70
2024-04-18T16:49:47.104Z,1.38
2024-04-18T16:54:50.725Z,1.40
2024-04-18T17:00:14.288Z,1.17
2024-04-18T17:05:17.654Z,1.30
2024-04-18T17:10:21.163Z,1.30
2024-04-18T17:15:42.829Z,1.60
2024-04-18T17:20:46.182Z,1.80
2024-04-18T17:25:52.477Z,1.88
2024-04-18T17:30:56.050Z,1.52
2024-04-18T17:35:59.349Z,1.92
2024-04-18T17:41:20.753Z,2.00
2024-04-18T17:46:24.659Z,2.22
2024-04-18T17:51:27.770Z,2.17
2024-04-18T17:56:30.711Z,1.73
2024-04-18T18:01:34.464Z,1.95
2024-04-18T18:06:48.171Z,1.80
2024-04-18T18:11:51.181Z,1.77
2024-04-18T18:16:54.479Z,2.00
2024-04-18T18:22:01.151Z,2.00
2024-04-18T18:27:04.949Z,2.40
2024-04-18T18:32:15.116Z,2.28
2024-04-18T18:37:19.397Z,2.35
2024-04-18T18:42:42.927Z,2.58
2024-04-18T18:47:46.302Z,2.70
2024-04-18T18:52:56.860Z,2.88
2024-04-18T18:58:10.532Z,2.90
2024-04-18T19:03:14.834Z,3.00
2024-04-18T19:08:18.077Z,3.93
2024-04-18T19:13:30.300Z,3.25
2024-04-18T19:18:34.613Z,3.72
2024-04-18T19:23:38.635Z,4.30
2024-04-18T19:28:42.427Z,4.13
2024-04-18T19:33:46.334Z,4.10
2024-04-18T19:38:50.516Z,3.90
2024-04-18T19:44:02.804Z,4.60
2024-04-18T19:49:07.435Z,4.72
2024-04-18T19:54:29.052Z,4.45
2024-04-18T19:59:32.765Z,4.88
2024-04-18T20:04:36.218Z,4.88
2024-04-18T20:09:39.220Z,5.00
2024-04-18T20:14:42.847Z,5.93
2024-04-18T20:19:46.066Z,5.82
2024-04-18T20:24:49.215Z,6.70
2024-04-18T20:30:11.198Z,7.15
2024-04-18T20:35:34.143Z,7.93
2024-04-18T20:40:37.734Z,7.93
2024-04-18T20:45:41.408Z,8.75
2024-04-18T20:50:44.346Z,8.75
2024-04-18T20:55:47.305Z,8.80
2024-04-18T21:00:50.925Z,9.30
2024-04-18T21:05:54.065Z,9.30
2024-04-18T21:10:57.144Z,9.45
2024-04-18T21:16:01.197Z,9.77
2024-04-18T21:21:05.049Z,9.27
2024-04-18T21:26:08.634Z,10.45
2024-04-18T21:31:11.872Z,11.05
2024-04-18T21:36:14.857Z,10.80
2024-04-18T21:41:18.480Z,11.30
2024-04-18T21:46:22.300Z,11.63
2024-04-18T21:51:25.251Z,11.30
2024-04-18T21:56:28.379Z,12.02
2024-04-18T22:01:31.872Z,12.82
2024-04-18T22:06:35.052Z,11.68
2024-04-18T22:11:38.892Z,13.38
2024-04-18T22:16:43.747Z,12.07
2024-04-18T22:21:47.436Z,13.03
2024-04-18T22:26:50.442Z,13.25
2024-04-18T22:31:54.098Z,13.65
2024-04-18T22:36:57.218Z,14.80
2024-04-18T22:42:00.203Z,15.38
2024-04-18T22:47:03.421Z,14.23
2024-04-18T22:52:06.620Z,13.20
2024-04-18T22:57:09.635Z,10.57
2024-04-18T23:02:14.856Z,9.80
2024-04-18T23:07:18.370Z,6.70
2024-04-18T23:12:21.996Z,4.45
2024-04-18T23:17:25.725Z,5.00
2024-04-18T23:22:29.317Z,4.65
2024-04-18T23:27:32.423Z,5.05
2024-04-18T23:32:37.127Z,4.78
2024-04-18T23:37:40.540Z,3.20
2024-04-18T23:42:44.153Z,3.70
2024-04-18T23:47:48.011Z,3.70
2024-04-18T23:52:50.953Z,3.15
2024-04-18T23:57:53.926Z,2.85
